sensor_id;sensor_type;location;lat;lon;timestamp;P1;durP1;ratioP1;P2;durP2;ratioP2
4933;SDS011;2482;49.154;8.254;2024-03-02T00:01:30;9.50;;;7.20;;
4933;SDS011;2482;49.154;8.254;2024-03-02T00:06:53;12.53;;;7.37;;
4933;SDS011;2482;49.154;8.254;2024-03-02T00:09:23;11.07;;;7.97;;
4933;SDS011;2482;49.154;8.254;2024-03-02T00:11:51;9.03;;;7.10;;
4933;SDS011;2482;49.154;8.254;2024-03-02T00:14:18;10.10;;;7.80;;
4933;SDS011;2482;49.154;8.254;2024-03-02T00:16:45;10.73;;;8.30;;
4933;SDS011;2482;49.154;8.254;2024-03-02T00:19:14;12.87;;;9.07;;
4933;SDS011;2482;49.154;8.254;2024-03-02T00:21:41;14.90;;;9.00;;
4933;SDS011;2482;49.154;8.254;2024-03-02T00:24:18;12.63;;;8.47;;
4933;SDS011;2482;49.154;8.254;2024-03-02T00:26:58;11.73;;;8.30;;
4933;SDS011;2482;49.154;8.254;2024-03-02T00:29:26;15.53;;;9.90;;
4933;SDS011;2482;49.154;8.254;2024-03-02T00:31:55;13.00;;;8.90;;
4933;SDS011;2482;49.154;8.254;2024-03-02T00:34:24;12.10;;;8.83;;
4933;SDS011;2482;49.154;8.254;2024-03-02T00:39:25;15.67;;;9.30;;
4933;SDS011;2482;49.154;8.254;2024-03-02T00:41:52;13.17;;;9.27;;
4933;SDS011;2482;49.154;8.254;2024-03-02T00:44:19;15.40;;;9.67;;
4933;SDS011;2482;49.154;8.254;2024-03-02T00:46:53;14.00;;;10.17;;
4933;SDS011;2482;49.154;8.254;2024-03-02T00:49:24;16.33;;;10.47;;
4933;SDS011;2482;49.154;8.254;2024-03-02T00:51:55;13.00;;;9.70;;
4933;SDS011;2482;49.154;8.254;2024-03-02T00:54:25;16.60;;;10.93;;
4933;SDS011;2482;49.154;8.254;2024-03-02T00:56:55;15.43;;;9.87;;
4933;SDS011;2482;49.154;8.254;2024-03-02T00:59:23;13.73;;;9.00;;
4933;SDS011;2482;49.154;8.254;2024-03-02T01:01:51;13.27;;;9.10;;
4933;SDS011;2482;49.154;8.254;2024-03-02T01:06:50;16.10;;;9.50;;
4933;SDS011;2482;49.154;8.254;2024-03-02T01:09:17;13.63;;;8.40;;
4933;SDS011;2482;49.154;8.254;2024-03-02T01:11:47;10.70;;;7.70;;
4933;SDS011;2482;49.154;8.254;2024-03-02T01:14:14;11.50;;;7.70;;
4933;SDS011;2482;49.154;8.254;2024-03-02T01:16:41;11.30;;;8.17;;
4933;SDS011;2482;49.154;8.254;2024-03-02T01:19:08;11.60;;;8.20;;
4933;SDS011;2482;49.154;8.254;2024-03-02T01:21:36;10.60;;;7.40;;
4933;SDS011;2482;49.154;8.254;2024-03-02T01:24:03;12.20;;;8.10;;
4933;SDS011;2482;49.154;8.254;2024-03-02T01:26:31;13.37;;;9.30;;
4933;SDS011;2482;49.154;8.254;2024-03-02T01:29:00;11.77;;;8.80;;
4933;SDS011;2482;49.154;8.254;2024-03-02T01:31:29;10.40;;;7.33;;
4933;SDS011;2482;49.154;8.254;2024-03-02T01:33:56;10.30;;;8.03;;
4933;SDS011;2482;49.154;8.254;2024-03-02T01:36:23;10.33;;;7.27;;
4933;SDS011;2482;49.154;8.254;2024-03-02T01:38:50;9.17;;;7.60;;
4933;SDS011;2482;49.154;8.254;2024-03-02T01:41:17;10.53;;;7.70;;
4933;SDS011;2482;49.154;8.254;2024-03-02T01:43:44;10.23;;;6.67;;
4933;SDS011;2482;49.154;8.254;2024-03-02T01:46:13;8.63;;;6.40;;
4933;SDS011;2482;49.154;8.254;2024-03-02T01:48:40;10.70;;;8.00;;
4933;SDS011;2482;49.154;8.254;2024-03-02T01:51:07;9.90;;;7.50;;
4933;SDS011;2482;49.154;8.254;2024-03-02T01:53:36;10.93;;;7.40;;
4933;SDS011;2482;49.154;8.254;2024-03-02T01:56:04;10.37;;;7.77;;
4933;SDS011;2482;49.154;8.254;2024-03-02T01:58:32;7.97;;;6.70;;
4933;SDS011;2482;49.154;8.254;2024-03-02T02:00:59;8.50;;;6.70;;
4933;SDS011;2482;49.154;8.254;2024-03-02T02:03:26;9.50;;;7.47;;
4933;SDS011;2482;49.154;8.254;2024-03-02T02:05:53;10.87;;;7.20;;
4933;SDS011;2482;49.154;8.254;2024-03-02T02:08:20;9.73;;;6.40;;
4933;SDS011;2482;49.154;8.254;2024-03-02T02:10:54;9.77;;;7.47;;
4933;SDS011;2482;49.154;8.254;2024-03-02T02:13:21;9.37;;;7.13;;
4933;SDS011;2482;49.154;8.254;2024-03-02T02:15:48;12.37;;;7.50;;
4933;SDS011;2482;49.154;8.254;2024-03-02T02:18:15;9.23;;;6.63;;
4933;SDS011;2482;49.154;8.254;2024-03-02T02:20:42;9.90;;;7.43;;
4933;SDS011;2482;49.154;8.254;2024-03-02T02:25:40;10.30;;;6.30;;
4933;SDS011;2482;49.154;8.254;2024-03-02T02:28:07;10.17;;;7.17;;
4933;SDS011;2482;49.154;8.254;2024-03-02T02:30:34;11.20;;;7.27;;
4933;SDS011;2482;49.154;8.254;2024-03-02T02:33:01;10.13;;;6.70;;
4933;SDS011;2482;49.154;8.254;2024-03-02T02:35:29;7.80;;;6.27;;
4933;SDS011;2482;49.154;8.254;2024-03-02T02:37:56;8.87;;;6.20;;
4933;SDS011;2482;49.154;8.254;2024-03-02T02:40:27;9.37;;;6.13;;
4933;SDS011;2482;49.154;8.254;2024-03-02T02:42:57;8.30;;;5.77;;
4933;SDS011;2482;49.154;8.254;2024-03-02T02:45:25;6.70;;;6.00;;
4933;SDS011;2482;49.154;8.254;2024-03-02T02:47:56;9.50;;;7.03;;
4933;SDS011;2482;49.154;8.254;2024-03-02T02:50:23;9.33;;;6.40;;
4933;SDS011;2482;49.154;8.254;2024-03-02T02:52:49;10.10;;;7.30;;
4933;SDS011;2482;49.154;8.254;2024-03-02T02:55:16;8.60;;;7.20;;
4933;SDS011;2482;49.154;8.254;2024-03-02T02:57:43;8.10;;;5.83;;
4933;SDS011;2482;49.154;8.254;2024-03-02T03:00:15;7.97;;;6.20;;
4933;SDS011;2482;49.154;8.254;2024-03-02T03:02:45;7.80;;;6.23;;
4933;SDS011;2482;49.154;8.254;2024-03-02T03:05:16;9.73;;;6.63;;
4933;SDS011;2482;49.154;8.254;2024-03-02T03:07:44;6.73;;;5.80;;
4933;SDS011;2482;49.154;8.254;2024-03-02T03:10:11;10.60;;;6.00;;
4933;SDS011;2482;49.154;8.254;2024-03-02T03:15:11;9.43;;;6.10;;
4933;SDS011;2482;49.154;8.254;2024-03-02T03:17:39;7.00;;;6.00;;
4933;SDS011;2482;49.154;8.254;2024-03-02T03:20:07;9.73;;;5.70;;
4933;SDS011;2482;49.154;8.254;2024-03-02T03:22:37;9.40;;;7.40;;
4933;SDS011;2482;49.154;8.254;2024-03-02T03:25:05;8.37;;;6.20;;
4933;SDS011;2482;49.154;8.254;2024-03-02T03:27:35;8.80;;;6.10;;
4933;SDS011;2482;49.154;8.254;2024-03-02T03:30:02;8.37;;;6.30;;
4933;SDS011;2482;49.154;8.254;2024-03-02T03:32:29;6.47;;;4.97;;
4933;SDS011;2482;49.154;8.254;2024-03-02T03:34:56;7.60;;;5.60;;
4933;SDS011;2482;49.154;8.254;2024-03-02T03:37:23;6.77;;;5.83;;
4933;SDS011;2482;49.154;8.254;2024-03-02T03:39:55;9.17;;;5.87;;
4933;SDS011;2482;49.154;8.254;2024-03-02T03:42:22;11.10;;;6.40;;
4933;SDS011;2482;49.154;8.254;2024-03-02T03:44:49;7.37;;;5.80;;
4933;SDS011;2482;49.154;8.254;2024-03-02T03:49:50;9.20;;;6.77;;
4933;SDS011;2482;49.154;8.254;2024-03-02T03:52:18;9.10;;;5.80;;
4933;SDS011;2482;49.154;8.254;2024-03-02T03:54:45;8.87;;;6.30;;
4933;SDS011;2482;49.154;8.254;2024-03-02T03:57:12;9.43;;;5.60;;
4933;SDS011;2482;49.154;8.254;2024-03-02T03:59:39;8.67;;;6.00;;
4933;SDS011;2482;49.154;8.254;2024-03-02T04:02:07;13.53;;;7.20;;
4933;SDS011;2482;49.154;8.254;2024-03-02T04:04:37;10.17;;;6.33;;
4933;SDS011;2482;49.154;8.254;2024-03-02T04:07:04;6.80;;;6.10;;
4933;SDS011;2482;49.154;8.254;2024-03-02T04:09:31;8.93;;;6.00;;
4933;SDS011;2482;49.154;8.254;2024-03-02T04:11:59;8.70;;;6.10;;
4933;SDS011;2482;49.154;8.254;2024-03-02T04:14:26;11.63;;;6.47;;
4933;SDS011;2482;49.154;8.254;2024-03-02T04:17:00;8.63;;;6.27;;
4933;SDS011;2482;49.154;8.254;2024-03-02T04:19:29;8.47;;;6.17;;
4933;SDS011;2482;49.154;8.254;2024-03-02T04:21:57;9.97;;;6.10;;
4933;SDS011;2482;49.154;8.254;2024-03-02T04:24:33;7.93;;;6.10;;
4933;SDS011;2482;49.154;8.254;2024-03-02T04:27:01;7.27;;;5.93;;
4933;SDS011;2482;49.154;8.254;2024-03-02T04:29:29;8.53;;;6.60;;
4933;SDS011;2482;49.154;8.254;2024-03-02T04:31:56;8.47;;;6.13;;
4933;SDS011;2482;49.154;8.254;2024-03-02T04:34:23;11.43;;;8.40;;
4933;SDS011;2482;49.154;8.254;2024-03-02T04:36:50;9.27;;;7.23;;
4933;SDS011;2482;49.154;8.254;2024-03-02T04:39:17;9.23;;;6.83;;
4933;SDS011;2482;49.154;8.254;2024-03-02T04:41:44;11.83;;;7.40;;
4933;SDS011;2482;49.154;8.254;2024-03-02T04:44:11;7.43;;;6.27;;
4933;SDS011;2482;49.154;8.254;2024-03-02T04:46:41;10.70;;;6.63;;
4933;SDS011;2482;49.154;8.254;2024-03-02T04:49:10;10.53;;;6.73;;
4933;SDS011;2482;49.154;8.254;2024-03-02T04:51:43;10.33;;;7.13;;
4933;SDS011;2482;49.154;8.254;2024-03-02T04:54:11;8.23;;;5.70;;
4933;SDS011;2482;49.154;8.254;2024-03-02T04:56:42;11.00;;;8.30;;
4933;SDS011;2482;49.154;8.254;2024-03-02T04:59:27;10.70;;;7.10;;
4933;SDS011;2482;49.154;8.254;2024-03-02T05:01:54;9.80;;;6.80;;
4933;SDS011;2482;49.154;8.254;2024-03-02T05:04:21;10.77;;;6.93;;
4933;SDS011;2482;49.154;8.254;2024-03-02T05:06:49;11.07;;;6.80;;
4933;SDS011;2482;49.154;8.254;2024-03-02T05:09:19;8.90;;;6.50;;
4933;SDS011;2482;49.154;8.254;2024-03-02T05:11:46;7.70;;;6.60;;
4933;SDS011;2482;49.154;8.254;2024-03-02T05:14:34;10.07;;;6.70;;
4933;SDS011;2482;49.154;8.254;2024-03-02T05:17:01;8.07;;;5.90;;
4933;SDS011;2482;49.154;8.254;2024-03-02T05:19:28;12.20;;;6.77;;
4933;SDS011;2482;49.154;8.254;2024-03-02T05:21:55;9.47;;;6.53;;
4933;SDS011;2482;49.154;8.254;2024-03-02T05:24:22;10.30;;;8.00;;
4933;SDS011;2482;49.154;8.254;2024-03-02T05:26:49;10.07;;;7.80;;
4933;SDS011;2482;49.154;8.254;2024-03-02T05:29:16;9.60;;;7.63;;
4933;SDS011;2482;49.154;8.254;2024-03-02T05:31:43;10.30;;;6.77;;
4933;SDS011;2482;49.154;8.254;2024-03-02T05:34:10;11.77;;;8.00;;
4933;SDS011;2482;49.154;8.254;2024-03-02T05:36:38;11.20;;;7.67;;
4933;SDS011;2482;49.154;8.254;2024-03-02T05:39:05;10.60;;;8.43;;
4933;SDS011;2482;49.154;8.254;2024-03-02T05:41:35;11.17;;;7.20;;
4933;SDS011;2482;49.154;8.254;2024-03-02T05:44:02;12.77;;;7.60;;
4933;SDS011;2482;49.154;8.254;2024-03-02T05:46:30;10.10;;;7.77;;
4933;SDS011;2482;49.154;8.254;2024-03-02T05:48:59;12.03;;;7.27;;
4933;SDS011;2482;49.154;8.254;2024-03-02T05:51:27;9.67;;;7.20;;
4933;SDS011;2482;49.154;8.254;2024-03-02T05:53:54;9.50;;;7.50;;
4933;SDS011;2482;49.154;8.254;2024-03-02T05:56:21;7.73;;;6.67;;
4933;SDS011;2482;49.154;8.254;2024-03-02T05:58:48;8.83;;;7.10;;
4933;SDS011;2482;49.154;8.254;2024-03-02T06:06:45;9.70;;;6.93;;
4933;SDS011;2482;49.154;8.254;2024-03-02T06:09:12;10.03;;;7.20;;
4933;SDS011;2482;49.154;8.254;2024-03-02T06:11:40;9.07;;;7.10;;
4933;SDS011;2482;49.154;8.254;2024-03-02T06:14:08;11.20;;;7.67;;
4933;SDS011;2482;49.154;8.254;2024-03-02T06:16:35;9.20;;;6.80;;
4933;SDS011;2482;49.154;8.254;2024-03-02T06:19:04;9.07;;;6.67;;
4933;SDS011;2482;49.154;8.254;2024-03-02T06:21:31;9.77;;;7.20;;
4933;SDS011;2482;49.154;8.254;2024-03-02T06:23:58;10.50;;;7.33;;
4933;SDS011;2482;49.154;8.254;2024-03-02T06:26:25;8.97;;;6.80;;
4933;SDS011;2482;49.154;8.254;2024-03-02T06:28:52;9.63;;;6.80;;
4933;SDS011;2482;49.154;8.254;2024-03-02T06:31:20;9.43;;;6.80;;
4933;SDS011;2482;49.154;8.254;2024-03-02T06:33:48;8.77;;;6.70;;
4933;SDS011;2482;49.154;8.254;2024-03-02T06:36:15;9.50;;;6.93;;
4933;SDS011;2482;49.154;8.254;2024-03-02T06:38:43;10.63;;;7.20;;
4933;SDS011;2482;49.154;8.254;2024-03-02T06:41:10;12.07;;;6.57;;
4933;SDS011;2482;49.154;8.254;2024-03-02T06:43:37;10.67;;;6.60;;
4933;SDS011;2482;49.154;8.254;2024-03-02T06:46:07;9.70;;;6.73;;
4933;SDS011;2482;49.154;8.254;2024-03-02T06:48:36;9.70;;;6.30;;
4933;SDS011;2482;49.154;8.254;2024-03-02T06:51:03;9.30;;;6.90;;
4933;SDS011;2482;49.154;8.254;2024-03-02T06:53:30;9.40;;;6.87;;
4933;SDS011;2482;49.154;8.254;2024-03-02T06:58:31;11.50;;;7.90;;
4933;SDS011;2482;49.154;8.254;2024-03-02T07:03:28;10.30;;;6.93;;
4933;SDS011;2482;49.154;8.254;2024-03-02T07:05:55;9.00;;;7.40;;
4933;SDS011;2482;49.154;8.254;2024-03-02T07:08:23;10.57;;;7.77;;
4933;SDS011;2482;49.154;8.254;2024-03-02T07:10:51;12.40;;;6.97;;
4933;SDS011;2482;49.154;8.254;2024-03-02T07:13:18;10.30;;;7.33;;
4933;SDS011;2482;49.154;8.254;2024-03-02T07:15:47;11.83;;;8.27;;
4933;SDS011;2482;49.154;8.254;2024-03-02T07:18:30;9.77;;;7.40;;
4933;SDS011;2482;49.154;8.254;2024-03-02T07:20:57;11.30;;;7.33;;
4933;SDS011;2482;49.154;8.254;2024-03-02T07:23:27;11.40;;;7.07;;
4933;SDS011;2482;49.154;8.254;2024-03-02T07:25:54;10.97;;;7.77;;
4933;SDS011;2482;49.154;8.254;2024-03-02T07:28:25;11.03;;;7.17;;
4933;SDS011;2482;49.154;8.254;2024-03-02T07:30:59;8.03;;;6.40;;
4933;SDS011;2482;49.154;8.254;2024-03-02T07:33:31;17.90;;;10.50;;
4933;SDS011;2482;49.154;8.254;2024-03-02T07:35:58;13.20;;;10.57;;
4933;SDS011;2482;49.154;8.254;2024-03-02T07:38:30;13.47;;;9.87;;
4933;SDS011;2482;49.154;8.254;2024-03-02T07:41:00;10.80;;;8.40;;
4933;SDS011;2482;49.154;8.254;2024-03-02T07:43:27;11.13;;;7.80;;
4933;SDS011;2482;49.154;8.254;2024-03-02T07:45:54;10.43;;;7.80;;
4933;SDS011;2482;49.154;8.254;2024-03-02T07:48:22;10.80;;;7.60;;
4933;SDS011;2482;49.154;8.254;2024-03-02T07:50:49;9.17;;;7.33;;
4933;SDS011;2482;49.154;8.254;2024-03-02T07:53:16;7.97;;;5.90;;
4933;SDS011;2482;49.154;8.254;2024-03-02T07:55:43;9.63;;;6.73;;
4933;SDS011;2482;49.154;8.254;2024-03-02T07:58:10;7.83;;;6.30;;
4933;SDS011;2482;49.154;8.254;2024-03-02T08:00:38;8.60;;;5.70;;
4933;SDS011;2482;49.154;8.254;2024-03-02T08:03:06;8.87;;;6.20;;
4933;SDS011;2482;49.154;8.254;2024-03-02T08:05:38;7.40;;;5.70;;
4933;SDS011;2482;49.154;8.254;2024-03-02T08:08:06;8.13;;;5.80;;
4933;SDS011;2482;49.154;8.254;2024-03-02T08:10:34;6.20;;;5.43;;
4933;SDS011;2482;49.154;8.254;2024-03-02T08:13:00;8.50;;;6.00;;
4933;SDS011;2482;49.154;8.254;2024-03-02T08:15:28;9.20;;;6.07;;
4933;SDS011;2482;49.154;8.254;2024-03-02T08:17:55;7.73;;;5.93;;
4933;SDS011;2482;49.154;8.254;2024-03-02T08:20:22;9.40;;;5.97;;
4933;SDS011;2482;49.154;8.254;2024-03-02T08:22:49;8.17;;;5.77;;
4933;SDS011;2482;49.154;8.254;2024-03-02T08:25:17;8.00;;;5.90;;
4933;SDS011;2482;49.154;8.254;2024-03-02T08:27:44;8.20;;;5.80;;
4933;SDS011;2482;49.154;8.254;2024-03-02T08:30:11;6.70;;;6.00;;
4933;SDS011;2482;49.154;8.254;2024-03-02T08:32:40;9.23;;;6.57;;
4933;SDS011;2482;49.154;8.254;2024-03-02T08:35:07;10.17;;;6.97;;
4933;SDS011;2482;49.154;8.254;2024-03-02T08:37:34;7.90;;;6.50;;
4933;SDS011;2482;49.154;8.254;2024-03-02T08:40:04;8.77;;;5.73;;
4933;SDS011;2482;49.154;8.254;2024-03-02T08:42:33;9.00;;;6.37;;
4933;SDS011;2482;49.154;8.254;2024-03-02T08:45:00;6.93;;;5.60;;
4933;SDS011;2482;49.154;8.254;2024-03-02T08:47:28;6.07;;;5.20;;
4933;SDS011;2482;49.154;8.254;2024-03-02T08:49:55;8.50;;;5.37;;
4933;SDS011;2482;49.154;8.254;2024-03-02T08:52:26;4.93;;;4.40;;
4933;SDS011;2482;49.154;8.254;2024-03-02T08:54:53;6.63;;;4.57;;
4933;SDS011;2482;49.154;8.254;2024-03-02T08:57:20;5.43;;;4.90;;
4933;SDS011;2482;49.154;8.254;2024-03-02T08:59:47;7.07;;;5.20;;
4933;SDS011;2482;49.154;8.254;2024-03-02T09:02:15;5.97;;;5.30;;
4933;SDS011;2482;49.154;8.254;2024-03-02T09:04:42;5.77;;;4.53;;
4933;SDS011;2482;49.154;8.254;2024-03-02T09:07:12;6.73;;;5.10;;
4933;SDS011;2482;49.154;8.254;2024-03-02T09:09:39;6.90;;;4.20;;
4933;SDS011;2482;49.154;8.254;2024-03-02T09:12:06;9.53;;;5.70;;
4933;SDS011;2482;49.154;8.254;2024-03-02T09:14:34;7.57;;;5.93;;
4933;SDS011;2482;49.154;8.254;2024-03-02T09:17:03;6.77;;;4.77;;
4933;SDS011;2482;49.154;8.254;2024-03-02T09:19:30;4.93;;;4.40;;
4933;SDS011;2482;49.154;8.254;2024-03-02T09:21:57;6.57;;;4.70;;
4933;SDS011;2482;49.154;8.254;2024-03-02T09:24:25;6.40;;;5.43;;
4933;SDS011;2482;49.154;8.254;2024-03-02T09:26:52;5.83;;;4.60;;
4933;SDS011;2482;49.154;8.254;2024-03-02T09:29:19;5.50;;;4.63;;
4933;SDS011;2482;49.154;8.254;2024-03-02T09:31:47;8.63;;;5.20;;
4933;SDS011;2482;49.154;8.254;2024-03-02T09:34:15;6.30;;;5.20;;
4933;SDS011;2482;49.154;8.254;2024-03-02T09:36:43;6.67;;;5.10;;
4933;SDS011;2482;49.154;8.254;2024-03-02T09:39:10;6.10;;;5.00;;
4933;SDS011;2482;49.154;8.254;2024-03-02T09:41:37;5.03;;;4.63;;
4933;SDS011;2482;49.154;8.254;2024-03-02T09:44:05;6.90;;;5.10;;
4933;SDS011;2482;49.154;8.254;2024-03-02T09:46:32;7.00;;;5.27;;
4933;SDS011;2482;49.154;8.254;2024-03-02T09:48:59;5.80;;;4.70;;
4933;SDS011;2482;49.154;8.254;2024-03-02T09:51:26;5.37;;;4.57;;
4933;SDS011;2482;49.154;8.254;2024-03-02T09:53:54;5.07;;;4.33;;
4933;SDS011;2482;49.154;8.254;2024-03-02T09:56:31;5.90;;;4.13;;
4933;SDS011;2482;49.154;8.254;2024-03-02T09:58:59;6.20;;;4.23;;
4933;SDS011;2482;49.154;8.254;2024-03-02T10:01:26;4.83;;;3.93;;
4933;SDS011;2482;49.154;8.254;2024-03-02T10:03:53;4.80;;;3.47;;
4933;SDS011;2482;49.154;8.254;2024-03-02T10:06:25;4.60;;;3.83;;
4933;SDS011;2482;49.154;8.254;2024-03-02T10:08:53;5.40;;;3.30;;
4933;SDS011;2482;49.154;8.254;2024-03-02T10:11:34;4.37;;;3.50;;
4933;SDS011;2482;49.154;8.254;2024-03-02T10:14:06;4.30;;;3.70;;
4933;SDS011;2482;49.154;8.254;2024-03-02T10:16:41;5.77;;;3.60;;
4933;SDS011;2482;49.154;8.254;2024-03-02T10:19:16;4.30;;;3.10;;
4933;SDS011;2482;49.154;8.254;2024-03-02T10:21:49;5.93;;;3.60;;
4933;SDS011;2482;49.154;8.254;2024-03-02T10:24:18;3.40;;;3.03;;
4933;SDS011;2482;49.154;8.254;2024-03-02T10:26:47;7.47;;;4.37;;
4933;SDS011;2482;49.154;8.254;2024-03-02T10:29:15;5.63;;;3.97;;
4933;SDS011;2482;49.154;8.254;2024-03-02T10:31:46;4.50;;;3.80;;
4933;SDS011;2482;49.154;8.254;2024-03-02T10:34:13;4.20;;;3.77;;
4933;SDS011;2482;49.154;8.254;2024-03-02T10:36:43;4.03;;;3.63;;
4933;SDS011;2482;49.154;8.254;2024-03-02T10:39:12;4.10;;;3.50;;
4933;SDS011;2482;49.154;8.254;2024-03-02T10:41:40;4.43;;;3.33;;
4933;SDS011;2482;49.154;8.254;2024-03-02T10:44:08;7.73;;;3.30;;
4933;SDS011;2482;49.154;8.254;2024-03-02T10:46:36;5.10;;;3.77;;
4933;SDS011;2482;49.154;8.254;2024-03-02T10:49:04;4.20;;;3.80;;
4933;SDS011;2482;49.154;8.254;2024-03-02T10:51:34;4.70;;;3.60;;
4933;SDS011;2482;49.154;8.254;2024-03-02T10:54:05;4.83;;;3.43;;
4933;SDS011;2482;49.154;8.254;2024-03-02T10:56:35;3.17;;;2.87;;
4933;SDS011;2482;49.154;8.254;2024-03-02T11:02:00;4.73;;;3.33;;
4933;SDS011;2482;49.154;8.254;2024-03-02T11:04:31;3.60;;;2.73;;
4933;SDS011;2482;49.154;8.254;2024-03-02T11:07:00;4.70;;;3.47;;
4933;SDS011;2482;49.154;8.254;2024-03-02T11:09:41;3.43;;;2.90;;
4933;SDS011;2482;49.154;8.254;2024-03-02T11:12:31;3.37;;;3.07;;
4933;SDS011;2482;49.154;8.254;2024-03-02T11:15:19;4.20;;;2.97;;
4933;SDS011;2482;49.154;8.254;2024-03-02T11:17:52;3.10;;;1.87;;
4933;SDS011;2482;49.154;8.254;2024-03-02T11:20:21;3.80;;;3.10;;
4933;SDS011;2482;49.154;8.254;2024-03-02T11:22:48;4.30;;;3.80;;
4933;SDS011;2482;49.154;8.254;2024-03-02T11:25:25;6.43;;;4.00;;
4933;SDS011;2482;49.154;8.254;2024-03-02T11:35:38;3.93;;;2.60;;
4933;SDS011;2482;49.154;8.254;2024-03-02T11:38:15;4.50;;;3.00;;
4933;SDS011;2482;49.154;8.254;2024-03-02T11:40:44;8.20;;;2.83;;
4933;SDS011;2482;49.154;8.254;2024-03-02T11:43:11;3.90;;;2.23;;
4933;SDS011;2482;49.154;8.254;2024-03-02T11:45:39;3.87;;;1.70;;
4933;SDS011;2482;49.154;8.254;2024-03-02T11:48:14;1.63;;;1.50;;
4933;SDS011;2482;49.154;8.254;2024-03-02T11:50:42;1.80;;;1.40;;
4933;SDS011;2482;49.154;8.254;2024-03-02T11:53:15;1.53;;;1.27;;
4933;SDS011;2482;49.154;8.254;2024-03-02T11:55:43;2.10;;;1.40;;
4933;SDS011;2482;49.154;8.254;2024-03-02T11:58:13;1.80;;;1.57;;
4933;SDS011;2482;49.154;8.254;2024-03-02T12:00:47;3.10;;;1.90;;
4933;SDS011;2482;49.154;8.254;2024-03-02T12:03:18;1.47;;;1.37;;
4933;SDS011;2482;49.154;8.254;2024-03-02T12:05:54;1.57;;;1.43;;
4933;SDS011;2482;49.154;8.254;2024-03-02T12:08:21;2.13;;;1.70;;
4933;SDS011;2482;49.154;8.254;2024-03-02T12:11:00;1.40;;;1.23;;
4933;SDS011;2482;49.154;8.254;2024-03-02T12:13:30;1.57;;;1.20;;
4933;SDS011;2482;49.154;8.254;2024-03-02T12:15:58;1.30;;;1.03;;
4933;SDS011;2482;49.154;8.254;2024-03-02T12:18:25;1.30;;;1.20;;
4933;SDS011;2482;49.154;8.254;2024-03-02T12:20:53;2.20;;;1.10;;
4933;SDS011;2482;49.154;8.254;2024-03-02T12:23:24;1.37;;;1.20;;
4933;SDS011;2482;49.154;8.254;2024-03-02T12:25:52;2.60;;;1.17;;
4933;SDS011;2482;49.154;8.254;2024-03-02T12:28:19;1.87;;;1.37;;
4933;SDS011;2482;49.154;8.254;2024-03-02T12:30:46;1.20;;;1.10;;
4933;SDS011;2482;49.154;8.254;2024-03-02T12:33:14;2.53;;;1.00;;
4933;SDS011;2482;49.154;8.254;2024-03-02T12:35:41;1.40;;;0.90;;
4933;SDS011;2482;49.154;8.254;2024-03-02T12:38:09;0.80;;;0.80;;
4933;SDS011;2482;49.154;8.254;2024-03-02T12:40:37;1.20;;;0.83;;
4933;SDS011;2482;49.154;8.254;2024-03-02T12:43:05;1.57;;;1.23;;
4933;SDS011;2482;49.154;8.254;2024-03-02T12:45:33;1.33;;;0.83;;
4933;SDS011;2482;49.154;8.254;2024-03-02T12:48:01;0.70;;;0.70;;
4933;SDS011;2482;49.154;8.254;2024-03-02T12:50:31;0.77;;;0.70;;
4933;SDS011;2482;49.154;8.254;2024-03-02T12:53:00;0.60;;;0.60;;
4933;SDS011;2482;49.154;8.254;2024-03-02T12:55:27;0.70;;;0.60;;
4933;SDS011;2482;49.154;8.254;2024-03-02T12:57:55;1.23;;;0.80;;
4933;SDS011;2482;49.154;8.254;2024-03-02T13:00:23;1.83;;;0.80;;
4933;SDS011;2482;49.154;8.254;2024-03-02T13:02:50;0.60;;;0.60;;
4933;SDS011;2482;49.154;8.254;2024-03-02T13:05:18;1.33;;;0.73;;
4933;SDS011;2482;49.154;8.254;2024-03-02T13:07:47;0.70;;;0.60;;
4933;SDS011;2482;49.154;8.254;2024-03-02T13:10:15;0.70;;;0.70;;
4933;SDS011;2482;49.154;8.254;2024-03-02T13:12:44;1.00;;;0.70;;
4933;SDS011;2482;49.154;8.254;2024-03-02T13:15:11;6.83;;;1.63;;
4933;SDS011;2482;49.154;8.254;2024-03-02T13:17:44;2.50;;;0.73;;
4933;SDS011;2482;49.154;8.254;2024-03-02T13:20:15;4.00;;;0.90;;
4933;SDS011;2482;49.154;8.254;2024-03-02T13:22:44;0.80;;;0.60;;
4933;SDS011;2482;49.154;8.254;2024-03-02T13:25:11;1.50;;;0.87;;
4933;SDS011;2482;49.154;8.254;2024-03-02T13:27:39;0.77;;;0.70;;
4933;SDS011;2482;49.154;8.254;2024-03-02T13:30:06;0.60;;;0.60;;
4933;SDS011;2482;49.154;8.254;2024-03-02T13:32:35;0.97;;;0.87;;
4933;SDS011;2482;49.154;8.254;2024-03-02T13:35:03;1.43;;;0.73;;
4933;SDS011;2482;49.154;8.254;2024-03-02T13:37:30;0.93;;;0.80;;
4933;SDS011;2482;49.154;8.254;2024-03-02T13:39:57;1.00;;;0.73;;
4933;SDS011;2482;49.154;8.254;2024-03-02T13:42:24;2.03;;;1.07;;
4933;SDS011;2482;49.154;8.254;2024-03-02T13:44:52;1.87;;;0.80;;
4933;SDS011;2482;49.154;8.254;2024-03-02T13:47:19;1.27;;;1.00;;
4933;SDS011;2482;49.154;8.254;2024-03-02T13:49:47;0.83;;;0.83;;
4933;SDS011;2482;49.154;8.254;2024-03-02T13:52:15;0.67;;;0.67;;
4933;SDS011;2482;49.154;8.254;2024-03-02T13:54:45;1.93;;;1.10;;
4933;SDS011;2482;49.154;8.254;2024-03-02T13:57:14;1.13;;;0.80;;
4933;SDS011;2482;49.154;8.254;2024-03-02T13:59:41;1.27;;;1.00;;
4933;SDS011;2482;49.154;8.254;2024-03-02T14:02:10;1.40;;;0.97;;
4933;SDS011;2482;49.154;8.254;2024-03-02T14:04:39;1.00;;;0.90;;
4933;SDS011;2482;49.154;8.254;2024-03-02T14:07:06;5.50;;;1.27;;
4933;SDS011;2482;49.154;8.254;2024-03-02T14:09:34;1.70;;;1.10;;
4933;SDS011;2482;49.154;8.254;2024-03-02T14:12:02;1.87;;;1.17;;
4933;SDS011;2482;49.154;8.254;2024-03-02T14:14:30;1.33;;;1.20;;
4933;SDS011;2482;49.154;8.254;2024-03-02T14:16:57;1.93;;;1.13;;
4933;SDS011;2482;49.154;8.254;2024-03-02T14:19:30;1.30;;;0.93;;
4933;SDS011;2482;49.154;8.254;2024-03-02T14:21:58;1.90;;;1.20;;
4933;SDS011;2482;49.154;8.254;2024-03-02T14:24:26;1.20;;;0.90;;
4933;SDS011;2482;49.154;8.254;2024-03-02T14:26:55;1.43;;;1.03;;
4933;SDS011;2482;49.154;8.254;2024-03-02T14:29:43;1.07;;;1.00;;
4933;SDS011;2482;49.154;8.254;2024-03-02T14:32:10;1.80;;;1.10;;
4933;SDS011;2482;49.154;8.254;2024-03-02T14:34:37;1.33;;;0.93;;
4933;SDS011;2482;49.154;8.254;2024-03-02T14:37:06;1.20;;;1.00;;
4933;SDS011;2482;49.154;8.254;2024-03-02T14:39:33;2.30;;;1.03;;
4933;SDS011;2482;49.154;8.254;2024-03-02T14:42:01;1.30;;;1.20;;
4933;SDS011;2482;49.154;8.254;2024-03-02T14:44:29;1.17;;;1.07;;
4933;SDS011;2482;49.154;8.254;2024-03-02T14:46:56;1.10;;;1.00;;
4933;SDS011;2482;49.154;8.254;2024-03-02T14:49:25;2.37;;;0.93;;
4933;SDS011;2482;49.154;8.254;2024-03-02T14:51:53;1.10;;;1.00;;
4933;SDS011;2482;49.154;8.254;2024-03-02T14:54:20;1.10;;;1.00;;
4933;SDS011;2482;49.154;8.254;2024-03-02T14:56:47;2.17;;;1.10;;
4933;SDS011;2482;49.154;8.254;2024-03-02T14:59:15;1.43;;;1.10;;
4933;SDS011;2482;49.154;8.254;2024-03-02T15:01:42;1.20;;;1.10;;
4933;SDS011;2482;49.154;8.254;2024-03-02T15:04:10;1.50;;;1.17;;
4933;SDS011;2482;49.154;8.254;2024-03-02T15:06:37;1.33;;;1.20;;
4933;SDS011;2482;49.154;8.254;2024-03-02T15:09:04;1.63;;;1.00;;
4933;SDS011;2482;49.154;8.254;2024-03-02T15:11:33;1.53;;;1.07;;
4933;SDS011;2482;49.154;8.254;2024-03-02T15:14:00;1.30;;;1.20;;
4933;SDS011;2482;49.154;8.254;2024-03-02T15:16:27;1.67;;;1.20;;
4933;SDS011;2482;49.154;8.254;2024-03-02T15:18:55;4.50;;;1.40;;
4933;SDS011;2482;49.154;8.254;2024-03-02T15:21:22;1.53;;;1.40;;
4933;SDS011;2482;49.154;8.254;2024-03-02T15:23:49;3.03;;;1.93;;
4933;SDS011;2482;49.154;8.254;2024-03-02T15:26:16;2.07;;;1.87;;
4933;SDS011;2482;49.154;8.254;2024-03-02T15:28:44;2.77;;;2.00;;
4933;SDS011;2482;49.154;8.254;2024-03-02T15:31:11;2.80;;;2.00;;
4933;SDS011;2482;49.154;8.254;2024-03-02T15:33:38;4.37;;;2.30;;
4933;SDS011;2482;49.154;8.254;2024-03-02T15:36:05;11.00;;;2.80;;
4933;SDS011;2482;49.154;8.254;2024-03-02T15:38:32;2.47;;;2.27;;
4933;SDS011;2482;49.154;8.254;2024-03-02T15:41:07;5.23;;;2.93;;
4933;SDS011;2482;49.154;8.254;2024-03-02T15:43:34;10.83;;;3.30;;
4933;SDS011;2482;49.154;8.254;2024-03-02T15:46:05;4.97;;;3.03;;
4933;SDS011;2482;49.154;8.254;2024-03-02T15:48:32;3.80;;;3.40;;
4933;SDS011;2482;49.154;8.254;2024-03-02T15:50:59;6.73;;;3.70;;
4933;SDS011;2482;49.154;8.254;2024-03-02T15:53:31;4.30;;;3.20;;
4933;SDS011;2482;49.154;8.254;2024-03-02T15:55:58;5.50;;;4.10;;
4933;SDS011;2482;49.154;8.254;2024-03-02T15:58:25;4.93;;;3.77;;